createdAt,value
2023-03-10T00:01:33.371Z,7.57
2023-03-10T00:04:41.966Z,7.80
2023-03-10T00:07:34.549Z,7.49
2023-03-10T00:11:02.410Z,6.42
2023-03-10T00:13:59.470Z,6.08
2023-03-10T00:17:12.948Z,6.75
2023-03-10T00:21:23.008Z,7.27
2023-03-10T00:24:38.068Z,7.64
2023-03-10T00:28:01.123Z,7.93
2023-03-10T00:31:23.067Z,7.42
2023-03-10T00:34:52.760Z,6.33
2023-03-10T00:38:02.976Z,6.05
2023-03-10T00:41:48.078Z,6.70
2023-03-10T00:45:58.181Z,7.30
2023-03-10T00:49:57.609Z,7.71
2023-03-10T00:54:04.161Z,7.97
2023-03-10T00:58:10.072Z,7.53
2023-03-10T01:01:48.107Z,6.22
2023-03-10T01:05:20.873Z,6.17
2023-03-10T01:08:58.544Z,6.93
2023-03-10T01:12:56.550Z,7.41
2023-03-10T01:17:24.857Z,7.81
2023-03-10T01:21:19.980Z,8.16
2023-03-10T01:24:31.152Z,7.48
2023-03-10T01:27:50.936Z,6.40
2023-03-10T01:31:09.596Z,6.24
2023-03-10T01:34:08.534Z,6.89
2023-03-10T01:36:52.597Z,7.33
2023-03-10T01:39:34.051Z,7.67
2023-03-10T01:42:55.726Z,7.95
2023-03-10T01:46:47.688Z,8.21
2023-03-10T01:50:14.847Z,7.40
2023-03-10T01:53:01.443Z,6.45
2023-03-10T01:55:47.015Z,6.33
2023-03-10T01:58:22.629Z,6.85
2023-03-10T02:00:54.808Z,7.30
2023-03-10T02:03:44.248Z,7.63
2023-03-10T02:06:16.053Z,7.92
2023-03-10T02:08:52.418Z,8.14
2023-03-10T02:11:24.659Z,8.24
2023-03-10T02:13:56.304Z,7.56
2023-03-10T02:16:26.680Z,6.67
2023-03-10T02:18:55.633Z,6.32
2023-03-10T02:21:34.168Z,6.78
2023-03-10T02:24:06.525Z,7.27
2023-03-10T02:26:54.710Z,7.64
2023-03-10T02:29:52.487Z,7.94
2023-03-10T02:32:36.999Z,8.19
2023-03-10T02:35:11.042Z,8.01
2023-03-10T02:38:08.203Z,7.07
2023-03-10T02:40:58.756Z,6.22
2023-03-10T02:45:17.254Z,6.46
2023-03-10T02:48:17.177Z,7.16
2023-03-10T02:51:40.845Z,7.60
2023-03-10T02:54:31.728Z,7.94
2023-03-10T02:57:40.068Z,8.19
2023-03-10T03:00:22.080Z,8.00
2023-03-10T03:03:53.523Z,6.93
2023-03-10T03:06:52.708Z,6.26
2023-03-10T03:10:13.998Z,6.85
2023-03-10T03:13:17.361Z,7.38
2023-03-10T03:15:47.408Z,7.77
2023-03-10T03:20:01.112Z,8.11
2023-03-10T03:23:20.242Z,8.37
2023-03-10T03:27:10.433Z,7.80
2023-03-10T03:31:41.220Z,6.50
2023-03-10T03:35:10.605Z,6.29
2023-03-10T03:38:46.567Z,6.98
2023-03-10T03:42:37.422Z,7.45
2023-03-10T03:46:26.797Z,7.85
2023-03-10T03:49:56.764Z,8.13
2023-03-10T03:53:49.180Z,8.37
2023-03-10T03:57:40.275Z,8.59
2023-03-10T04:01:17.811Z,7.62
2023-03-10T04:09:49.135Z,6.97
2023-03-10T04:55:40.904Z,8.87
2023-03-10T05:00:03.475Z,7.90
2023-03-10T05:04:10.967Z,6.55
2023-03-10T05:08:28.180Z,6.90
2023-03-10T05:16:12.872Z,8.17
2023-03-10T05:20:02.002Z,8.49
2023-03-10T05:24:12.040Z,8.77
2023-03-10T05:28:55.167Z,8.99
2023-03-10T05:33:02.268Z,7.57
2023-03-10T05:37:09.939Z,6.51
2023-03-10T05:41:39.763Z,7.00
2023-03-10T05:45:46.150Z,7.86
2023-03-10T05:53:59.809Z,8.76
2023-03-10T05:57:33.694Z,9.08
2023-03-10T06:00:48.719Z,8.58
2023-03-10T06:04:10.264Z,7.39
2023-03-10T06:06:41.621Z,7.01
2023-03-10T06:09:34.773Z,7.51
2023-03-10T06:12:10.856Z,8.11
2023-03-10T06:14:44.383Z,8.53
2023-03-10T06:17:19.756Z,8.84
2023-03-10T06:19:53.045Z,9.13
2023-03-10T06:23:02.045Z,9.36
2023-03-10T06:26:34.544Z,9.55
2023-03-10T06:29:50.294Z,8.73
2023-03-10T06:34:05.333Z,7.52
2023-03-10T06:42:29.714Z,8.38
2023-03-10T06:46:35.578Z,9.03
2023-03-10T06:54:42.845Z,9.97
2023-03-10T06:58:53.916Z,9.22
2023-03-10T07:03:09.670Z,7.95
2023-03-10T07:06:48.915Z,8.10
2023-03-10T07:10:10.533Z,8.95
2023-03-10T07:13:17.204Z,9.54
2023-03-10T07:16:49.669Z,9.96
2023-03-10T07:21:00.930Z,10.36
2023-03-10T07:25:52.843Z,9.77
2023-03-10T07:29:59.981Z,8.46
2023-03-10T07:41:58.460Z,10.09
2023-03-10T07:46:01.943Z,10.57
2023-03-10T08:18:53.498Z,12.22
